Time;durP1;ratioP1;P1;durP2;ratioP2;P2;SDS_P1;SDS_P2;PMS_P1;PMS_P2;Temp;Humidity;BMP_temperature;BMP_pressure;BME280_temperature;BME280_humidity;BME280_pressure;Samples;Min_cycle;Max_cycle;Signal;HPM_P1;HPM_P2
2023/02/10 00:14:52;;;;;;;27.83;14.10;;;;;;;-2.34;100.00;102276.50;31198404;28;20053;-76
2023/02/10 00:29:54;;;;;;;22.90;12.60;;;;;;;-2.32;100.00;102269.03;31227181;28;20065;-76
2023/02/10 00:44:56;;;;;;;20.33;11.07;;;;;;;-2.33;100.00;102267.44;31199194;28;20115;-76
2023/02/10 00:59:58;;;;;;;38.87;15.40;;;;;;;-2.33;100.00;102262.13;31218064;28;20045;-76
2023/02/10 01:15:00;;;;;;;28.60;14.27;;;;;;;-2.44;100.00;102259.56;31215508;28;20050;-75
2023/02/10 01:30:02;;;;;;;25.77;14.27;;;;;;;-2.61;100.00;102251.19;31260743;28;20107;-76
2023/02/10 01:45:16;;;;;;;30.90;14.83;;;;;;;-2.61;100.00;102253.06;31231674;28;20075;-75
2023/02/10 02:00:18;;;;;;;29.03;15.17;;;;;;;-2.92;100.00;102257.75;31204661;28;20037;-76
2023/02/10 02:15:30;;;;;;;31.33;14.20;;;;;;;-3.03;100.00;102243.72;31243493;28;20080;-76
2023/02/10 02:30:47;;;;;;;34.83;16.50;;;;;;;-2.74;100.00;102238.50;31189480;28;20553;-76
2023/02/10 03:28:39;;;;;;;41.30;17.33;;;;;;;-2.86;100.00;102227.44;31438724;27;20765;-74
2023/02/10 03:43:42;;;;;;;40.80;17.00;;;;;;;-2.64;100.00;102219.03;31422264;28;20048;-74
2023/02/10 03:58:43;;;;;;;45.27;23.33;;;;;;;-3.06;100.00;102232.84;31451986;28;20497;-74
2023/02/10 04:13:45;;;;;;;43.73;18.67;;;;;;;-3.01;100.00;102224.84;31449057;28;20106;-74
2023/02/10 04:28:48;;;;;;;33.77;13.90;;;;;;;-2.71;100.00;102235.28;31345063;28;20502;-74
2023/02/10 04:43:50;;;;;;;15.60;8.70;;;;;;;-2.91;100.00;102235.44;31346211;28;20108;-74
2023/02/10 04:58:52;;;;;;;16.77;10.53;;;;;;;-2.76;100.00;102249.41;31334602;28;20052;-73
2023/02/10 05:13:54;;;;;;;28.53;14.77;;;;;;;-3.04;100.00;102246.66;31357616;28;20044;-73
2023/02/10 05:28:56;;;;;;;27.47;13.17;;;;;;;-2.51;100.00;102245.78;31325257;28;20049;-80
2023/02/10 05:43:58;;;;;;;28.90;15.30;;;;;;;-1.44;100.00;102258.06;31327547;28;20087;-80
2023/02/10 05:59:00;;;;;;;40.67;16.17;;;;;;;0.08;100.00;102245.06;31334426;28;20042;-79
2023/02/10 06:14:02;;;;;;;33.03;18.13;;;;;;;-0.47;100.00;102249.47;31321173;28;20087;-74
2023/02/10 10:40:05;;;;;;;13.43;7.57;;;;;;;9.05;50.56;102072.06;31656071;27;20495;-94
2023/02/10 10:55:21;;;;;;;13.03;6.87;;;;;;;8.73;48.25;102070.69;31503997;28;20131;-79
2023/02/10 11:10:38;;;;;;;11.53;7.27;;;;;;;6.72;52.21;102071.78;31522588;28;20040;-77
2023/02/10 11:25:41;;;;;;;19.47;8.80;;;;;;;5.17;60.84;102054.31;31464457;28;20091;-76
2023/02/10 11:41:10;;;;;;;12.70;7.50;;;;;;;4.93;63.92;102026.22;31398828;28;20060;-79
2023/02/10 11:58:58;;;;;;;16.37;7.37;;;;;;;4.67;65.11;102004.97;31435696;28;20104;-90
2023/02/10 12:12:19;;;;;;;14.27;7.30;;;;;;;4.52;66.29;101996.69;31407505;28;20049;-94
2023/02/10 12:27:54;;;;;;;13.23;7.00;;;;;;;4.52;68.84;101999.38;31383764;28;20056;-78
2023/02/10 12:43:09;;;;;;;14.33;8.47;;;;;;;4.07;71.37;101992.03;31368137;28;20053;-78
2023/02/10 12:58:27;;;;;;;18.03;7.63;;;;;;;3.80;76.66;102003.28;31424658;28;20077;-91
2023/02/10 13:13:30;;;;;;;15.20;7.63;;;;;;;3.97;74.78;101995.91;31495481;28;20056;-78
2023/02/10 13:29:06;;;;;;;17.70;8.73;;;;;;;3.51;77.09;101986.09;31341428;28;20061;-78
2023/02/10 13:44:31;;;;;;;19.77;9.10;;;;;;;3.07;83.01;101982.78;31360662;28;20049;-77
2023/02/10 13:59:41;;;;;;;25.23;10.90;;;;;;;2.92;88.69;101991.38;31346442;28;20061;-77
2023/02/10 14:14:43;;;;;;;24.83;11.30;;;;;;;2.78;91.90;101974.69;31349219;28;20071;-77
2023/02/10 14:29:52;;;;;;;19.97;10.33;;;;;;;2.62;92.21;101969.03;31354377;28;20049;-80
2023/02/10 14:44:57;;;;;;;24.23;12.17;;;;;;;2.18;98.86;101962.16;31371825;28;20049;-78
2023/02/10 15:00:01;;;;;;;26.53;10.57;;;;;;;2.04;100.00;101977.63;31355733;28;20090;-90
2023/02/10 15:15:12;;;;;;;21.00;10.60;;;;;;;1.78;100.00;101958.84;31551581;22;20078;-83
2023/02/10 15:30:22;;;;;;;22.67;10.00;;;;;;;1.30;100.00;101956.22;31513362;28;20100;-83
2023/02/10 15:45:25;;;;;;;27.43;10.53;;;;;;;0.86;100.00;101960.63;31506655;28;20052;-86
2023/02/10 16:00:30;;;;;;;21.73;10.50;;;;;;;0.72;100.00;101954.56;31501032;28;20048;-86
2023/02/10 16:15:33;;;;;;;23.83;10.43;;;;;;;0.61;100.00;101958.59;31499190;28;20052;-84
2023/02/10 16:30:35;;;;;;;24.03;11.93;;;;;;;0.28;100.00;101964.19;31485305;28;20490;-81
2023/02/10 16:45:38;;;;;;;24.13;10.13;;;;;;;-0.02;100.00;101980.94;31500205;28;20063;-83
2023/02/10 17:00:41;;;;;;;24.57;11.07;;;;;;;-0.24;100.00;101964.88;31477204;28;20400;-88
2023/02/10 17:15:43;;;;;;;21.77;9.27;;;;;;;-0.44;100.00;101958.84;31464998;28;20053;-82
2023/02/10 17:30:45;;;;;;;19.10;10.53;;;;;;;-0.59;100.00;101943.16;31483907;28;20059;-79
2023/02/10 17:45:49;;;;;;;14.63;7.60;;;;;;;-0.70;100.00;101920.44;31465428;28;20044;-86
2023/02/10 18:00:53;;;;;;;23.60;11.17;;;;;;;-0.81;100.00;101913.75;31467720;28;20056;-81
2023/02/10 22:29:29;;;;;;;20.20;10.17;;;;;;;-1.99;100.00;101767.81;31305143;28;20780;-77
2023/02/10 22:44:31;;;;;;;19.67;9.10;;;;;;;-2.12;100.00;101753.41;31223326;28;20057;-77
2023/02/10 22:59:33;;;;;;;11.53;5.53;;;;;;;-2.16;100.00;101733.00;31161452;28;20189;-77
2023/02/10 23:14:35;;;;;;;17.87;10.33;;;;;;;-2.57;100.00;101732.88;31132941;28;20116;-77
2023/02/10 23:29:37;;;;;;;22.53;8.50;;;;;;;-2.62;100.00;101717.81;31056303;28;20049;-78
2023/02/10 23:44:40;;;;;;;12.37;7.60;;;;;;;-2.62;100.00;101712.50;31076512;28;20058;-77
2023/02/10 23:59:42;;;;;;;17.00;9.27;;;;;;;-2.64;100.00;101714.66;31057866;28;20054;-77
